createdAt,value
2023-08-14T00:03:27.856Z,17.57
2023-08-14T00:08:31.049Z,17.60
2023-08-14T00:13:50.962Z,17.54
2023-08-14T00:18:55.617Z,17.47
2023-08-14T00:23:58.828Z,17.41
2023-08-14T00:29:01.844Z,17.34
2023-08-14T00:34:06.689Z,17.31
2023-08-14T00:39:09.881Z,17.26
2023-08-14T00:44:12.965Z,17.25
2023-08-14T00:49:18.091Z,17.31
2023-08-14T00:54:21.243Z,17.31
2023-08-14T00:59:24.508Z,17.35
2023-08-14T01:04:29.075Z,17.31
2023-08-14T01:09:32.483Z,17.30
2023-08-14T01:14:36.696Z,17.29
2023-08-14T01:19:43.805Z,17.21
2023-08-14T01:24:55.333Z,17.16
2023-08-14T01:30:01.061Z,17.12
2023-08-14T01:35:04.876Z,17.12
2023-08-14T01:40:13.972Z,17.07
2023-08-14T01:45:21.662Z,17.02
2023-08-14T01:50:28.127Z,17.02
2023-08-14T01:55:31.331Z,16.98
2023-08-14T02:00:35.963Z,17.00
2023-08-14T02:05:39.230Z,16.97
2023-08-14T02:10:42.357Z,16.96
2023-08-14T02:15:48.690Z,16.94
2023-08-14T02:20:52.040Z,16.89
2023-08-14T02:25:56.942Z,16.87
2023-08-14T02:31:04.205Z,16.80
2023-08-14T02:36:07.613Z,16.80
2023-08-14T02:41:10.718Z,16.73
2023-08-14T02:46:17.321Z,16.68
2023-08-14T02:51:20.322Z,16.65
2023-08-14T02:56:23.894Z,16.60
2023-08-14T03:01:28.486Z,16.56
2023-08-14T03:06:33.648Z,16.50
2023-08-14T03:11:36.703Z,16.46
2023-08-14T03:16:41.253Z,16.42
2023-08-14T03:21:44.380Z,16.40
2023-08-14T03:26:48.279Z,16.35
2023-08-14T03:31:53.137Z,16.31
2023-08-14T03:37:00.019Z,16.25
2023-08-14T03:42:03.348Z,16.21
2023-08-14T03:47:08.373Z,16.18
2023-08-14T03:52:12.556Z,16.09
2023-08-14T03:57:16.851Z,16.10
2023-08-14T04:02:22.891Z,16.10
2023-08-14T04:07:25.918Z,16.14
2023-08-14T04:12:29.005Z,16.12
2023-08-14T04:17:34.130Z,16.04
2023-08-14T04:22:39.691Z,16.08
2023-08-14T04:27:42.775Z,16.06
2023-08-14T04:32:47.476Z,16.06
2023-08-14T04:37:50.817Z,16.09
2023-08-14T04:42:54.142Z,16.19
2023-08-14T04:47:59.411Z,16.26
2023-08-14T04:53:04.660Z,16.33
2023-08-14T04:58:09.841Z,16.40
2023-08-14T05:03:14.860Z,16.49
2023-08-14T05:08:17.944Z,16.64
2023-08-14T05:13:21.479Z,16.75
2023-08-14T05:18:26.518Z,16.85
2023-08-14T05:23:29.994Z,16.98
2023-08-14T05:28:33.189Z,17.09
2023-08-14T05:33:38.396Z,17.20
2023-08-14T05:38:41.508Z,17.09
2023-08-14T05:43:45.010Z,17.36
2023-08-14T05:48:49.573Z,17.45
2023-08-14T05:53:52.735Z,17.46
2023-08-14T05:58:59.261Z,17.63
2023-08-14T06:04:03.940Z,17.78
2023-08-14T06:09:07.823Z,17.96
2023-08-14T06:14:10.957Z,18.04
2023-08-14T06:19:15.552Z,18.13
2023-08-14T06:24:18.699Z,18.18
2023-08-14T06:29:21.797Z,18.29
2023-08-14T06:34:26.432Z,18.38
2023-08-14T06:39:29.716Z,18.49
2023-08-14T06:44:32.836Z,18.74
2023-08-14T06:49:39.936Z,18.86
2023-08-14T06:54:43.026Z,18.83
2023-08-14T06:59:46.871Z,18.85
2023-08-14T07:04:51.489Z,18.78
2023-08-14T07:09:54.603Z,18.78
2023-08-14T07:14:57.750Z,18.84
2023-08-14T07:20:02.402Z,19.29
2023-08-14T07:25:06.965Z,19.60
2023-08-14T07:30:12.001Z,19.84
2023-08-14T07:35:16.740Z,19.86
2023-08-14T07:40:19.867Z,19.79
2023-08-14T07:45:23.022Z,19.80
2023-08-14T07:50:27.600Z,19.96
2023-08-14T07:55:30.934Z,20.20
2023-08-14T08:00:34.108Z,20.57
2023-08-14T08:05:38.871Z,20.96
2023-08-14T08:10:42.075Z,21.32
2023-08-14T08:15:45.422Z,21.51
2023-08-14T08:25:52.823Z,22.41
2023-08-14T08:30:56.119Z,22.80
2023-08-14T08:36:00.702Z,23.22
2023-08-14T08:41:09.510Z,23.64
2023-08-14T08:46:14.487Z,24.06
2023-08-14T08:51:20.058Z,24.32
2023-08-14T08:56:24.001Z,24.62
2023-08-14T09:01:27.810Z,25.02
2023-08-14T09:06:32.497Z,25.40
2023-08-14T09:11:36.014Z,25.65
2023-08-14T09:16:39.324Z,26.05
2023-08-14T09:21:46.114Z,26.29
2023-08-14T09:26:58.493Z,26.58
2023-08-14T09:32:05.655Z,26.83
2023-08-14T09:37:12.682Z,27.02
2023-08-14T09:42:16.021Z,27.30
2023-08-14T09:47:19.583Z,27.70
2023-08-14T09:52:25.871Z,27.85
2023-08-14T09:57:29.682Z,27.98
2023-08-14T10:02:34.754Z,28.07
2023-08-14T10:07:41.255Z,28.26
2023-08-14T10:12:52.180Z,28.10
2023-08-14T10:17:58.920Z,28.05
2023-08-14T10:23:04.454Z,28.19
2023-08-14T10:28:08.816Z,28.44
2023-08-14T10:33:12.713Z,28.78
2023-08-14T10:38:18.951Z,29.09
2023-08-14T10:43:30.665Z,29.02
2023-08-14T10:48:37.441Z,29.21
2023-08-14T10:53:42.989Z,29.44
2023-08-14T10:58:55.244Z,29.71
2023-08-14T11:04:00.530Z,29.80
2023-08-14T11:09:06.369Z,30.04
2023-08-14T11:14:10.645Z,29.92
2023-08-14T11:19:15.849Z,30.35
2023-08-14T11:24:20.413Z,30.37
2023-08-14T11:29:23.635Z,30.40
2023-08-14T11:34:27.343Z,30.47
2023-08-14T11:39:32.382Z,30.23
2023-08-14T11:44:35.553Z,29.98
2023-08-14T11:49:39.826Z,30.17
2023-08-14T11:54:46.123Z,30.27
2023-08-14T11:59:49.632Z,30.30
2023-08-14T12:04:54.404Z,30.28
2023-08-14T12:09:59.678Z,30.16
2023-08-14T12:15:04.635Z,30.14
2023-08-14T12:20:11.693Z,30.12
2023-08-14T12:25:20.831Z,30.14
2023-08-14T12:30:24.028Z,30.31
2023-08-14T12:35:27.439Z,30.17
2023-08-14T12:40:33.349Z,30.16
2023-08-14T12:45:36.580Z,30.10
2023-08-14T12:50:39.732Z,30.14
2023-08-14T12:55:44.657Z,29.93
2023-08-14T13:00:47.730Z,29.99
2023-08-14T13:05:50.964Z,30.17
2023-08-14T13:10:55.491Z,30.14
2023-08-14T13:15:59.524Z,30.34
2023-08-14T13:21:02.689Z,30.38
2023-08-14T13:26:07.227Z,30.39
2023-08-14T13:31:10.675Z,30.52
2023-08-14T13:36:13.904Z,30.63
2023-08-14T13:41:18.574Z,30.86
2023-08-14T13:46:21.755Z,30.89
2023-08-14T13:51:24.877Z,30.84
2023-08-14T13:56:29.600Z,30.86
2023-08-14T14:01:32.728Z,31.06
2023-08-14T14:06:35.979Z,31.10
2023-08-14T14:11:40.661Z,31.20
2023-08-14T14:16:56.858Z,31.42
2023-08-14T14:22:01.411Z,31.44
2023-08-14T14:27:06.390Z,31.36
2023-08-14T14:32:09.607Z,31.50
2023-08-14T14:37:12.762Z,31.72
2023-08-14T14:42:18.657Z,31.86
2023-08-14T14:47:22.040Z,32.17
2023-08-14T14:52:25.673Z,32.31
2023-08-14T14:57:30.533Z,32.44
2023-08-14T15:02:33.687Z,32.37
2023-08-14T15:07:36.865Z,32.20
2023-08-14T15:12:41.547Z,32.21
2023-08-14T15:17:45.229Z,32.17
2023-08-14T15:22:49.225Z,32.06
2023-08-14T15:27:53.667Z,32.02
2023-08-14T15:32:56.747Z,32.07
2023-08-14T15:38:00.125Z,31.99
2023-08-14T15:43:04.703Z,31.89
2023-08-14T15:48:08.052Z,31.92
2023-08-14T15:53:11.236Z,31.89
2023-08-14T15:58:15.950Z,31.84
2023-08-14T16:03:19.117Z,31.84
2023-08-14T16:08:22.345Z,31.80
2023-08-14T16:13:26.810Z,31.84
2023-08-14T16:18:29.979Z,31.81
2023-08-14T16:23:33.123Z,31.78
2023-08-14T16:28:37.653Z,31.78
2023-08-14T16:33:40.649Z,32.34
2023-08-14T16:38:43.905Z,34.71
2023-08-14T16:43:48.511Z,36.39
2023-08-14T16:48:51.633Z,37.36
2023-08-14T16:53:55.237Z,37.96
2023-08-14T16:58:59.881Z,37.18
2023-08-14T17:04:04.251Z,35.65
2023-08-14T17:09:09.634Z,34.49
2023-08-14T17:14:17.137Z,33.62
2023-08-14T17:19:20.451Z,33.07
2023-08-14T17:24:23.562Z,32.70
2023-08-14T17:29:28.129Z,32.44
2023-08-14T17:34:31.221Z,32.18
2023-08-14T17:39:34.384Z,31.72
2023-08-14T17:44:39.182Z,31.31
2023-08-14T17:49:42.409Z,30.99
2023-08-14T17:54:47.145Z,30.70
2023-08-14T17:59:51.748Z,30.60
2023-08-14T18:04:54.942Z,30.47
2023-08-14T18:09:58.001Z,30.18
2023-08-14T18:15:02.399Z,29.87
2023-08-14T18:20:06.738Z,29.50
2023-08-14T18:25:32.377Z,29.17
2023-08-14T18:30:36.856Z,28.84
2023-08-14T18:35:40.065Z,28.56
2023-08-14T18:40:46.152Z,28.34
2023-08-14T18:45:52.098Z,28.07
2023-08-14T18:50:57.083Z,27.79
2023-08-14T18:56:00.934Z,27.51
2023-08-14T19:01:05.385Z,27.26
2023-08-14T19:06:08.652Z,27.03
2023-08-14T19:11:11.880Z,26.79
2023-08-14T19:16:16.680Z,26.52
2023-08-14T19:21:19.716Z,26.25
2023-08-14T19:26:27.677Z,26.06
2023-08-14T19:31:32.834Z,25.79
2023-08-14T19:36:35.888Z,25.49
2023-08-14T19:41:38.973Z,25.34
2023-08-14T19:46:43.424Z,25.15
2023-08-14T19:51:46.401Z,24.99
2023-08-14T19:56:49.523Z,24.85
2023-08-14T20:01:54.110Z,24.72
2023-08-14T20:06:57.134Z,24.61
2023-08-14T20:12:00.209Z,24.55
2023-08-14T20:17:04.593Z,24.44
2023-08-14T20:22:07.609Z,24.28
2023-08-14T20:27:10.630Z,24.13
2023-08-14T20:32:15.174Z,24.01
2023-08-14T20:37:18.544Z,23.91
2023-08-14T20:42:21.909Z,23.83
2023-08-14T20:47:26.554Z,23.77
2023-08-14T20:52:29.703Z,23.65
2023-08-14T20:57:32.818Z,23.53
2023-08-14T21:02:37.499Z,23.46
2023-08-14T21:07:40.734Z,23.38
2023-08-14T21:12:43.755Z,23.29
2023-08-14T21:17:49.565Z,23.21
2023-08-14T21:22:52.836Z,23.11
2023-08-14T21:27:55.932Z,22.98
2023-08-14T21:33:00.371Z,22.87
2023-08-14T21:38:04.264Z,22.78
2023-08-14T21:43:07.681Z,22.68
2023-08-14T21:48:12.352Z,22.65
2023-08-14T21:53:15.603Z,22.64
2023-08-14T21:58:19.043Z,22.72
2023-08-14T22:03:23.549Z,22.71
2023-08-14T22:08:26.730Z,22.69
2023-08-14T22:13:29.903Z,22.64
2023-08-14T22:18:34.709Z,22.48
2023-08-14T22:23:37.952Z,22.47
2023-08-14T22:28:41.328Z,22.44
2023-08-14T22:33:46.424Z,22.34
2023-08-14T22:38:49.442Z,22.29
2023-08-14T22:43:52.470Z,22.19
2023-08-14T22:48:56.842Z,22.16
2023-08-14T22:54:01.426Z,22.05
2023-08-14T22:59:04.742Z,21.99
2023-08-14T23:04:09.302Z,22.00
2023-08-14T23:09:12.529Z,21.98
2023-08-14T23:14:16.337Z,21.98
2023-08-14T23:19:20.800Z,21.97
2023-08-14T23:24:23.844Z,21.86
2023-08-14T23:29:27.164Z,21.72
2023-08-14T23:34:31.639Z,21.73
2023-08-14T23:39:34.665Z,21.71
2023-08-14T23:44:37.767Z,21.68
2023-08-14T23:49:46.357Z,21.61
2023-08-14T23:54:49.434Z,21.60
2023-08-14T23:59:52.824Z,21.53
